»·PEaware :: N951TA L88-KSBP

N951TA :: L88-KSBP

FLIGHT INFORMATION

Flight Status: Arrived
Operator: Privately registered:
United States
More flights under this callsign
Pilot: John H. (7647)
Aircraft: CESSNA 172 SKYHAWK
(C172)
More flights by this aircraft type
Origin: L88 New Cuyama
United States
Destination: KSBP San Luis Co Regl
United States
More flights between these airports :: More routes between these airports
Route:
File this flight plan on PilotEdge
Remarks:
Altitude:
(Current/Filed)
4,500ft
Speed:
(Current/Filed)
120kts
Departed: 31-Dec-18 09:56 AM
Arrived: 31-Dec-18 10:40 AM
Distance/Time
Traveled:
50nm/0:44
Distance/Time
To Go:
Arrived

Flight Plot

Page will automatically refresh every two minutes.


Map Options




Map Legend


Flown Route
Filed Route
Departure Airport
Arrival Airport
Navaid (VOR, NDB)
Fix

Horizontal Profiles

Position Reports

Time Latitude Longitude Heading Altitude Ground
Speed
31-Dec-18 09:51 34.942382 -119.690534 204 2164ft 0kts
31-Dec-18 09:52 34.941555 -119.689392 118 2166ft 11kts
31-Dec-18 09:53 34.939907 -119.685480 112 2180ft 9kts
31-Dec-18 09:54 34.938894 -119.683038 118 2195ft 11kts
31-Dec-18 09:55 34.937640 -119.679936 297 2211ft 0kts
31-Dec-18 09:56 34.944209 -119.696042 297 2650ft 72kts
31-Dec-18 09:57 34.952579 -119.719079 296 3417ft 73kts
31-Dec-18 09:58 34.960272 -119.742172 296 4164ft 74kts
31-Dec-18 09:59 34.968388 -119.769088 296 4590ft 101kts
31-Dec-18 10:00 34.980377 -119.801880 301 4458ft 114kts
31-Dec-18 10:01 34.995329 -119.835222 301 4285ft 111kts
31-Dec-18 10:02 35.009357 -119.867886 302 4358ft 107kts
31-Dec-18 10:03 35.022898 -119.900518 298 4420ft 109kts
31-Dec-18 10:04 35.033610 -119.927834 299 4482ft 108kts
31-Dec-18 10:05 35.045417 -119.961812 296 4506ft 109kts
31-Dec-18 10:05 35.056189 -119.989470 299 4550ft 108kts
31-Dec-18 10:07 35.072555 -120.027128 308 4556ft 108kts
31-Dec-18 10:08 35.090075 -120.056860 308 4489ft 109kts
31-Dec-18 10:08 35.106746 -120.079164 315 4439ft 108kts
31-Dec-18 10:09 35.129872 -120.102241 317 4348ft 108kts
31-Dec-18 10:10 35.150772 -120.127830 289 4328ft 106kts
31-Dec-18 10:11 35.150802 -120.153812 270 4397ft 103kts
31-Dec-18 10:13 35.148121 -120.193835 261 4469ft 102kts
31-Dec-18 10:13 35.143459 -120.222689 262 4481ft 105kts
31-Dec-18 10:14 35.138534 -120.255651 256 4536ft 104kts
31-Dec-18 10:15 35.127427 -120.288914 251 4574ft 106kts
31-Dec-18 10:16 35.120554 -120.321866 300 4670ft 96kts
31-Dec-18 10:17 35.125038 -120.356668 280 4609ft 105kts
31-Dec-18 10:18 35.129039 -120.392222 284 4621ft 106kts
31-Dec-18 10:19 35.135368 -120.428561 284 4517ft 109kts
31-Dec-18 10:20 35.143789 -120.464297 293 4407ft 111kts
31-Dec-18 10:21 35.156625 -120.498703 300 4283ft 111kts
31-Dec-18 10:22 35.173151 -120.530711 307 3831ft 113kts
31-Dec-18 10:23 35.177455 -120.507218 124 3713ft 121kts
31-Dec-18 10:24 35.159954 -120.474022 114 4182ft 117kts
31-Dec-18 10:25 35.146135 -120.437377 106 4760ft 121kts
31-Dec-18 10:26 35.125140 -120.430307 280 4640ft 118kts
31-Dec-18 10:27 35.139648 -120.464368 299 4383ft 110kts
31-Dec-18 10:28 35.142392 -120.498251 242 4373ft 119kts
31-Dec-18 10:29 35.124810 -120.529686 240 4406ft 118kts
31-Dec-18 10:30 35.098144 -120.527663 143 4410ft 129kts
31-Dec-18 10:31 35.072064 -120.500620 77 4461ft 125kts
31-Dec-18 10:32 35.095481 -120.508705 338 4452ft 107kts
31-Dec-18 10:33 35.124578 -120.518326 338 4436ft 107kts
31-Dec-18 10:34 35.152320 -120.531827 339 4076ft 105kts
31-Dec-18 10:35 35.178760 -120.547441 325 3151ft 108kts
31-Dec-18 10:36 35.199862 -120.575030 304 1919ft 108kts
31-Dec-18 10:37 35.215017 -120.601939 308 1300ft 82kts
31-Dec-18 10:38 35.226565 -120.622246 308 595ft 66kts
31-Dec-18 10:39 35.235275 -120.637246 306 186ft 39kts
31-Dec-18 10:40 35.237487 -120.639877 23 186ft 0kts
31-Dec-18 10:41 35.237421 -120.639177 117 186ft 14kts
31-Dec-18 10:42 35.237835 -120.638598 256 186ft 0kts

Navigation Log

Ident Type
Flight plan parsing failed, navigation log unavailable